Time;durP1;ratioP1;P1;durP2;ratioP2;P2;SDS_P1;SDS_P2;PMS_P1;PMS_P2;Temp;Humidity;BMP_temperature;BMP_pressure;BME280_temperature;BME280_humidity;BME280_pressure;Samples;Min_cycle;Max_cycle;Signal;HPM_P1;HPM_P2
2021/03/15 00:00:10;;;;;;;27.83;23.80;;;;;;;4.93;72.93;99499.90;1730455;81;21322;-79
2021/03/15 00:02:40;;;;;;;28.57;23.33;;;;;;;4.52;73.16;99445.95;1743870;80;21732;-78
2021/03/15 00:05:10;;;;;;;28.93;23.20;;;;;;;4.71;73.55;99494.39;1752221;81;21339;-79
2021/03/15 00:07:41;;;;;;;28.53;22.17;;;;;;;4.66;73.79;99511.23;1751665;80;21155;-80
2021/03/15 00:10:11;;;;;;;27.30;22.93;;;;;;;4.76;73.52;99509.20;1753114;80;21186;-79
2021/03/15 00:12:40;;;;;;;29.83;22.23;;;;;;;4.80;73.37;99499.97;1724369;81;21702;-81
2021/03/15 00:15:12;;;;;;;26.03;21.63;;;;;;;4.76;73.47;99507.06;1695500;82;22370;-79
2021/03/15 00:17:40;;;;;;;28.53;23.40;;;;;;;4.70;73.66;99517.00;1698686;82;21218;-78
2021/03/15 00:20:12;;;;;;;23.03;19.57;;;;;;;4.71;73.63;99518.63;1713326;82;21369;-78
2021/03/15 00:22:40;;;;;;;26.23;22.90;;;;;;;4.78;73.29;99507.72;1709589;81;21108;-79
2021/03/15 00:25:09;;;;;;;25.50;21.83;;;;;;;4.86;73.16;99513.80;1699414;83;21694;-80
2021/03/15 00:27:37;;;;;;;26.13;21.43;;;;;;;4.81;73.18;99517.44;1700076;83;21333;-80
2021/03/15 00:30:09;;;;;;;30.00;23.50;;;;;;;4.77;73.34;99516.14;1698184;84;21152;-77
2021/03/15 00:32:37;;;;;;;28.20;22.03;;;;;;;4.76;73.34;99517.12;1687680;83;21222;-79
2021/03/15 00:35:07;;;;;;;27.57;21.97;;;;;;;4.82;73.29;99515.14;1699418;83;21282;-80
2021/03/15 00:37:35;;;;;;;25.53;22.37;;;;;;;4.98;72.94;99510.27;1701413;83;21203;-79
2021/03/15 00:40:06;;;;;;;27.07;21.53;;;;;;;4.75;72.62;99459.23;1702721;84;21164;-79
2021/03/15 00:42:34;;;;;;;28.67;23.70;;;;;;;5.06;72.49;99511.55;1700099;83;22008;-79
2021/03/15 00:45:01;;;;;;;25.90;23.07;;;;;;;5.03;72.52;99515.87;1711211;83;21036;-80
2021/03/15 00:47:28;;;;;;;27.53;23.87;;;;;;;5.03;72.58;99514.55;1731397;81;21183;-81
2021/03/15 00:49:55;;;;;;;30.00;24.90;;;;;;;5.04;72.58;99516.17;1699104;82;21350;-80
2021/03/15 00:52:26;;;;;;;27.97;23.30;;;;;;;5.06;72.33;99522.61;1690737;85;21202;-81
2021/03/15 00:54:53;;;;;;;29.83;23.17;;;;;;;5.14;72.02;99516.47;1697034;83;21504;-79
2021/03/15 00:57:22;;;;;;;29.00;23.70;;;;;;;5.21;71.84;99525.34;1653411;85;21548;-80
2021/03/15 00:59:52;;;;;;;25.87;21.87;;;;;;;5.12;71.92;99513.99;1664988;85;21538;-81
2021/03/15 01:02:20;;;;;;;30.90;24.50;;;;;;;5.06;72.12;99521.30;1668413;85;21203;-81
2021/03/15 01:04:48;;;;;;;29.97;22.27;;;;;;;5.02;72.26;99512.08;1664745;85;21709;-80
2021/03/15 01:07:19;;;;;;;32.13;24.23;;;;;;;4.99;72.38;99517.69;1660046;85;21199;-80
2021/03/15 01:09:47;;;;;;;28.10;23.13;;;;;;;5.04;72.31;99511.41;1675931;85;21242;-79
2021/03/15 01:12:47;;;;;;;29.20;25.00;;;;;;;5.20;71.92;99500.75;1786415;78;23722;-80
2021/03/15 01:15:19;;;;;;;27.17;22.93;;;;;;;5.09;72.03;99503.79;1774568;78;21791;-81
2021/03/15 01:17:48;;;;;;;30.93;24.13;;;;;;;5.03;72.25;99501.84;1780132;78;21585;-80
2021/03/15 01:20:16;;;;;;;30.67;24.93;;;;;;;4.95;72.48;99500.05;1745534;80;21170;-80
2021/03/15 01:22:46;;;;;;;28.03;23.13;;;;;;;4.88;72.69;99498.60;1755253;80;21293;-80
2021/03/15 01:25:15;;;;;;;31.70;26.90;;;;;;;4.95;72.58;99494.77;1754349;80;21202;-81
2021/03/15 01:27:42;;;;;;;32.63;26.47;;;;;;;4.94;72.59;99485.72;1751070;80;21166;-78
2021/03/15 01:30:16;;;;;;;31.20;26.03;;;;;;;4.85;72.85;99491.52;1738209;80;21600;-80
2021/03/15 01:32:43;;;;;;;31.00;24.93;;;;;;;4.79;73.12;99493.03;1739493;81;21392;-79
2021/03/15 01:35:11;;;;;;;32.70;24.73;;;;;;;4.75;73.32;99489.09;1724540;80;21334;-80
2021/03/15 01:37:38;;;;;;;32.97;25.70;;;;;;;4.76;73.46;99491.22;1722784;81;21696;-80
2021/03/15 01:40:07;;;;;;;37.10;28.53;;;;;;;4.74;73.51;99482.15;1708251;82;21976;-80
2021/03/15 01:42:34;;;;;;;36.37;27.03;;;;;;;4.66;73.73;99473.77;1713013;81;22136;-79
2021/03/15 01:45:02;;;;;;;40.23;30.30;;;;;;;4.62;73.92;99467.70;1705587;82;21144;-79
2021/03/15 01:47:29;;;;;;;33.80;26.70;;;;;;;4.62;74.03;99470.34;1719533;81;21341;-78
2021/03/15 01:49:57;;;;;;;37.03;28.00;;;;;;;4.70;73.86;99482.67;1716676;81;21784;-81
2021/03/15 01:52:25;;;;;;;35.80;28.23;;;;;;;4.72;73.77;99485.46;1718419;81;22516;-81
2021/03/15 01:54:53;;;;;;;37.57;28.93;;;;;;;4.67;73.92;99493.06;1718205;81;21725;-80
2021/03/15 01:57:22;;;;;;;36.83;27.33;;;;;;;4.65;73.97;99496.38;1718625;81;21599;-80
2021/03/15 01:59:52;;;;;;;35.00;27.23;;;;;;;4.63;74.19;99498.36;1724364;82;21938;-81
2021/03/15 02:02:20;;;;;;;34.47;26.60;;;;;;;4.71;73.94;99487.80;1715820;81;21068;-79
2021/03/15 02:04:48;;;;;;;34.83;27.20;;;;;;;4.80;73.66;99493.84;1698956;81;21345;-78
2021/03/15 02:07:16;;;;;;;35.57;27.17;;;;;;;4.77;73.74;99490.25;1715245;81;21184;-79
2021/03/15 02:09:44;;;;;;;41.40;29.60;;;;;;;4.75;73.80;99502.80;1726319;81;21375;-81
2021/03/15 02:13:01;;;;;;;36.53;28.97;;;;;;;4.71;73.85;99502.78;1701252;82;21131;-79
2021/03/15 02:16:08;;;;;;;33.33;27.07;;;;;;;4.74;73.80;99504.59;1687461;82;21280;-79
2021/03/15 02:18:52;;;;;;;38.17;29.70;;;;;;;4.87;73.52;99502.73;1678287;83;21218;-78
2021/03/15 02:21:43;;;;;;;42.57;29.70;;;;;;;4.83;73.55;99504.89;1677850;83;21211;-80
2021/03/15 02:24:27;;;;;;;41.53;31.63;;;;;;;4.77;73.65;99502.94;1696267;82;21170;-80
2021/03/15 02:27:38;;;;;;;38.50;29.40;;;;;;;4.69;73.76;99505.63;1676589;83;21194;-81
2021/03/15 02:30:35;;;;;;;37.83;29.77;;;;;;;4.66;73.90;99509.41;1691393;83;21249;-80
2021/03/15 02:33:10;;;;;;;41.63;31.67;;;;;;;4.70;73.87;99509.08;1690108;83;21614;-79
2021/03/15 02:35:39;;;;;;;37.80;29.83;;;;;;;4.75;73.75;99516.81;1688482;83;21336;-80
2021/03/15 02:38:10;;;;;;;37.97;30.53;;;;;;;4.67;73.93;99514.18;1686016;82;21304;-80
2021/03/15 02:40:47;;;;;;;41.70;31.90;;;;;;;4.60;74.15;99515.38;1669089;83;21183;-80
2021/03/15 02:43:30;;;;;;;35.63;26.80;;;;;;;4.56;74.34;99514.55;1645170;85;21220;-79
2021/03/15 02:46:01;;;;;;;38.40;29.17;;;;;;;4.58;74.44;99505.98;1646048;85;21213;-81
2021/03/15 02:48:34;;;;;;;36.23;27.80;;;;;;;4.60;74.32;99504.00;1660399;84;21693;-82
2021/03/15 02:51:05;;;;;;;40.53;29.80;;;;;;;4.58;74.36;99499.39;1689412;83;21167;-82
2021/03/15 02:53:34;;;;;;;42.37;27.93;;;;;;;4.47;74.72;99496.11;1654077;84;21204;-81
2021/03/15 02:56:08;;;;;;;41.27;29.90;;;;;;;4.41;75.07;99486.23;1680267;82;21069;-81
2021/03/15 02:58:38;;;;;;;38.33;28.73;;;;;;;4.45;75.08;99484.90;1667001;84;21319;-82
2021/03/15 03:01:07;;;;;;;41.27;29.77;;;;;;;4.53;74.93;99478.77;1680497;83;21089;-81
2021/03/15 03:03:37;;;;;;;34.83;26.17;;;;;;;4.55;74.88;99480.73;1680044;84;21317;-83
2021/03/15 03:06:06;;;;;;;43.63;30.70;;;;;;;4.47;75.10;99473.67;1675361;84;21249;-81
2021/03/15 03:08:35;;;;;;;40.70;29.87;;;;;;;4.44;75.36;99477.14;1692222;83;21330;-84
2021/03/15 03:11:02;;;;;;;39.40;30.10;;;;;;;4.46;75.43;99478.64;1657842;84;21236;-79
2021/03/15 03:13:32;;;;;;;40.17;29.90;;;;;;;4.56;75.17;99471.00;1652861;84;21193;-79
2021/03/15 03:16:03;;;;;;;41.87;29.87;;;;;;;4.53;75.41;99472.67;1630716;85;21215;-79
2021/03/15 03:18:32;;;;;;;49.17;32.73;;;;;;;4.47;75.60;99474.18;1680930;83;21294;-79
2021/03/15 03:21:01;;;;;;;45.27;32.10;;;;;;;4.41;75.85;99471.72;1676732;83;21199;-78
2021/03/15 03:23:33;;;;;;;43.53;30.47;;;;;;;4.45;75.92;99466.93;1679861;84;21096;-80
2021/03/15 03:26:02;;;;;;;47.77;34.00;;;;;;;4.54;75.68;99470.34;1673779;83;21187;-79
2021/03/15 03:28:30;;;;;;;48.50;35.03;;;;;;;4.56;75.61;99473.16;1691212;83;21748;-79
2021/03/15 03:31:01;;;;;;;48.37;31.67;;;;;;;4.57;75.73;99470.83;1688496;83;21187;-79
2021/03/15 03:33:28;;;;;;;44.10;30.73;;;;;;;4.56;75.78;99480.23;1695380;83;21159;-79
2021/03/15 03:35:55;;;;;;;44.13;30.93;;;;;;;4.57;75.73;99485.86;1694526;82;21590;-80
2021/03/15 03:38:24;;;;;;;46.97;33.93;;;;;;;4.63;75.55;99496.56;1705565;82;21189;-79
2021/03/15 03:40:51;;;;;;;44.70;31.87;;;;;;;4.58;75.77;99490.97;1682838;83;21936;-79
2021/03/15 03:43:18;;;;;;;47.17;32.63;;;;;;;4.52;75.91;99494.77;1672537;84;21310;-80
2021/03/15 03:45:45;;;;;;;48.50;34.63;;;;;;;4.48;76.09;99494.28;1647042;85;21120;-79
2021/03/15 03:48:12;;;;;;;50.33;35.93;;;;;;;4.51;76.11;99485.22;1650141;84;21208;-79
2021/03/15 03:50:39;;;;;;;47.47;32.60;;;;;;;4.63;75.71;99483.84;1627803;86;22020;-79
2021/03/15 03:53:11;;;;;;;56.50;34.53;;;;;;;4.40;75.64;99446.31;1647390;85;21222;-77
2021/03/15 03:55:53;;;;;;;58.03;37.97;;;;;;;4.62;75.72;99496.23;1649366;85;21115;-78
2021/03/15 03:58:22;;;;;;;48.47;34.60;;;;;;;4.57;75.86;99497.22;1641372;84;21188;-79
2021/03/15 04:00:54;;;;;;;57.00;37.73;;;;;;;4.52;76.05;99503.53;1657766;83;21101;-80
2021/03/15 04:03:24;;;;;;;53.57;35.20;;;;;;;4.55;76.04;99503.67;1726054;80;21160;-80
2021/03/15 04:05:58;;;;;;;50.87;34.83;;;;;;;4.70;75.80;99515.67;1732552;81;21302;-79
2021/03/15 04:08:32;;;;;;;58.93;38.87;;;;;;;4.74;75.62;99516.47;1740965;81;21219;-78
2021/03/15 04:11:02;;;;;;;59.83;39.03;;;;;;;4.70;75.73;99515.67;1752178;81;21190;-80
2021/03/15 04:13:32;;;;;;;51.53;35.10;;;;;;;4.65;75.99;99510.89;1740319;81;21625;-81
2021/03/15 04:16:03;;;;;;;56.73;37.80;;;;;;;4.58;76.19;99511.27;1746491;80;21320;-83
2021/03/15 04:18:33;;;;;;;53.33;36.07;;;;;;;4.58;76.13;99516.55;1739206;80;21150;-81
2021/03/15 04:21:01;;;;;;;59.13;39.33;;;;;;;4.65;76.05;99511.73;1731935;81;21158;-80
2021/03/15 04:23:36;;;;;;;58.47;37.93;;;;;;;4.62;76.20;99523.94;1731381;81;21568;-82
2021/03/15 04:26:07;;;;;;;53.93;35.60;;;;;;;4.52;76.58;99531.24;1744371;81;21178;-83
2021/03/15 04:28:36;;;;;;;56.97;38.17;;;;;;;4.44;76.88;99536.02;1744506;81;21221;-82
2021/03/15 04:31:07;;;;;;;62.10;38.20;;;;;;;4.48;76.88;99543.95;1744292;80;21183;-82
2021/03/15 04:33:37;;;;;;;56.37;37.87;;;;;;;4.60;76.57;99540.95;1737170;80;21094;-81
2021/03/15 04:36:07;;;;;;;64.57;40.20;;;;;;;4.63;76.54;99540.12;1718362;82;21745;-80
2021/03/15 04:38:36;;;;;;;61.67;38.87;;;;;;;4.56;76.66;99544.89;1700105;82;21236;-82
2021/03/15 04:41:05;;;;;;;65.07;42.40;;;;;;;3.74;76.80;99425.05;1680660;82;21297;-83
2021/03/15 04:43:37;;;;;;;60.67;36.67;;;;;;;4.11;76.88;99486.47;1686305;82;21622;-81
2021/03/15 04:46:07;;;;;;;56.00;36.23;;;;;;;4.55;76.80;99545.91;1635621;84;21200;-82
2021/03/15 04:48:39;;;;;;;54.97;39.27;;;;;;;4.64;76.52;99539.61;1691136;82;21220;-84
2021/03/15 04:51:09;;;;;;;56.30;35.97;;;;;;;4.65;76.49;99543.41;1682417;82;21667;-83
2021/03/15 04:53:40;;;;;;;62.47;39.40;;;;;;;4.60;76.68;99542.27;1686535;83;22719;-83
2021/03/15 04:56:15;;;;;;;66.20;40.60;;;;;;;4.54;76.83;99549.52;1691953;81;21204;-82
2021/03/15 04:58:51;;;;;;;58.90;40.40;;;;;;;4.47;77.01;99560.77;1723336;81;21215;-83
2021/03/15 05:01:20;;;;;;;65.13;40.27;;;;;;;4.49;77.00;99561.41;1717961;81;21715;-81
2021/03/15 05:03:50;;;;;;;65.60;42.70;;;;;;;4.45;77.23;99569.84;1734509;81;21223;-81
2021/03/15 05:06:19;;;;;;;55.47;38.20;;;;;;;4.38;77.48;99571.00;1724311;81;21832;-82
2021/03/15 05:08:50;;;;;;;60.13;38.50;;;;;;;4.34;77.70;99572.83;1735833;81;21229;-82
2021/03/15 05:11:23;;;;;;;57.77;38.40;;;;;;;4.32;77.72;99565.58;1734602;80;21203;-81
2021/03/15 05:13:51;;;;;;;61.17;38.83;;;;;;;4.42;77.62;99565.70;1727570;81;21352;-82
2021/03/15 05:16:19;;;;;;;61.03;40.60;;;;;;;4.53;77.33;99569.82;1701777;82;22297;-83
2021/03/15 05:18:52;;;;;;;61.97;40.90;;;;;;;4.54;77.33;99568.84;1732864;81;21674;-83
2021/03/15 05:21:23;;;;;;;66.83;44.10;;;;;;;4.49;77.43;99571.97;1724558;82;21629;-81
2021/03/15 05:23:55;;;;;;;65.17;42.63;;;;;;;4.43;77.71;99566.55;1732955;81;21096;-82
2021/03/15 05:26:33;;;;;;;69.77;44.40;;;;;;;4.04;77.67;99507.39;1717843;81;21220;-81
2021/03/15 05:29:20;;;;;;;;;;;;;;;4.61;77.49;99572.44;1726278;81;21180;-82
2021/03/15 05:31:50;;;;;;;57.85;38.83;;;;;;;4.69;77.37;99575.58;1720046;81;20221;-87
2021/03/15 05:34:21;;;;;;;56.53;38.60;;;;;;;4.65;77.63;99570.28;1717472;80;21236;-83
2021/03/15 05:36:50;;;;;;;63.63;41.37;;;;;;;4.67;77.46;99570.94;1728483;81;21264;-82
2021/03/15 05:39:18;;;;;;;63.33;39.83;;;;;;;4.68;77.30;99569.45;1732816;81;21251;-82
2021/03/15 05:42:00;;;;;;;58.80;39.57;;;;;;;4.75;77.01;99574.89;1737423;81;21175;-84
2021/03/15 05:45:13;;;;;;;62.90;39.33;;;;;;;4.96;76.85;99570.88;1813237;76;24536;-85
2021/03/15 05:48:28;;;;;;;62.10;39.67;;;;;;;4.98;76.77;99577.62;1721474;81;21163;-83
2021/03/15 05:51:24;;;;;;;67.63;43.00;;;;;;;4.97;76.58;99569.86;1691373;82;21250;-81
2021/03/15 05:54:13;;;;;;;68.00;42.40;;;;;;;4.98;76.62;99578.12;1689001;82;21207;-81
2021/03/15 05:57:18;;;;;;;62.47;40.30;;;;;;;4.99;76.58;99573.16;1686598;82;21080;-82
2021/03/15 06:00:03;;;;;;;59.20;39.93;;;;;;;5.13;76.26;99578.23;1644388;84;21226;-83
2021/03/15 06:03:01;;;;;;;58.73;40.57;;;;;;;5.29;75.79;99582.61;1672588;84;21658;-79
2021/03/15 06:05:29;;;;;;;62.07;40.53;;;;;;;5.34;75.73;99581.61;1684508;83;21432;-80
2021/03/15 06:08:10;;;;;;;63.43;41.03;;;;;;;5.33;75.68;99576.83;1701513;83;21751;-81
2021/03/15 06:11:03;;;;;;;56.47;35.67;;;;;;;5.31;75.45;99586.72;1702132;83;21198;-80
2021/03/15 06:13:34;;;;;;;57.63;38.37;;;;;;;5.26;75.29;99593.04;1669794;84;21537;-80
2021/03/15 06:16:04;;;;;;;58.73;39.07;;;;;;;5.33;75.09;99593.16;1688489;83;21329;-81
2021/03/15 06:18:32;;;;;;;55.30;40.13;;;;;;;5.36;75.05;99596.78;1690147;83;21330;-80
2021/03/15 06:21:00;;;;;;;55.17;39.03;;;;;;;5.33;75.27;99597.97;1690392;83;21205;-79
2021/03/15 06:23:29;;;;;;;54.37;37.97;;;;;;;5.33;75.09;99593.16;1703220;81;21116;-81
2021/03/15 06:25:56;;;;;;;61.83;39.83;;;;;;;5.30;75.01;99592.20;1721615;81;21350;-81
2021/03/15 06:28:27;;;;;;;57.00;39.73;;;;;;;5.34;74.96;99594.82;1712218;81;21174;-81
2021/03/15 06:30:55;;;;;;;54.83;38.93;;;;;;;5.46;74.72;99595.59;1711318;82;21622;-78
2021/03/15 06:33:22;;;;;;;56.13;40.37;;;;;;;5.50;74.45;99591.25;1715419;80;21644;-77
2021/03/15 06:36:05;;;;;;;59.10;44.27;;;;;;;5.45;74.54;99591.28;1730176;81;21626;-78
2021/03/15 06:38:34;;;;;;;53.77;40.70;;;;;;;5.42;74.64;99590.80;1732774;81;21167;-76
2021/03/15 06:41:06;;;;;;;56.93;41.17;;;;;;;5.41;74.83;99586.53;1727915;81;22099;-77
2021/03/15 06:43:33;;;;;;;56.40;38.27;;;;;;;5.42;74.81;99589.48;1723758;81;21163;-80
2021/03/15 06:46:00;;;;;;;58.23;39.43;;;;;;;5.50;74.39;99588.14;1691899;83;21575;-81
2021/03/15 06:48:28;;;;;;;55.90;38.73;;;;;;;5.65;74.02;99588.19;1753564;81;21609;-79
2021/03/15 06:50:57;;;;;;;61.47;42.90;;;;;;;5.71;73.87;99586.19;1752263;80;21147;-79
2021/03/15 06:53:38;;;;;;;59.37;42.17;;;;;;;5.72;73.94;99589.65;1753794;80;21346;-79
2021/03/15 06:56:13;;;;;;;64.73;44.37;;;;;;;5.74;73.72;99590.30;1755696;80;21161;-79
2021/03/15 06:58:53;;;;;;;62.43;42.77;;;;;;;5.80;73.65;99589.58;1774565;79;22968;-80
2021/03/15 07:01:29;;;;;;;62.60;43.13;;;;;;;5.77;73.42;99588.63;1722321;80;21454;-80
2021/03/15 07:04:08;;;;;;;58.20;39.63;;;;;;;5.78;73.49;99595.55;1682812;84;21215;-79
2021/03/15 07:06:41;;;;;;;63.20;41.80;;;;;;;5.87;73.13;99599.79;1678005;84;21219;-79
2021/03/15 07:09:14;;;;;;;59.03;41.03;;;;;;;6.01;72.72;99600.39;1672475;84;21237;-79
2021/03/15 07:11:42;;;;;;;62.07;43.27;;;;;;;6.03;72.51;99594.42;1652440;85;21045;-80
2021/03/15 07:14:24;;;;;;;60.63;42.80;;;;;;;6.01;72.66;99600.39;1639222;85;21163;-81
2021/03/15 07:17:00;;;;;;;58.13;42.03;;;;;;;6.02;72.62;99602.53;1651819;85;21661;-79
2021/03/15 07:19:29;;;;;;;65.50;45.03;;;;;;;6.04;72.61;99593.91;1654865;85;21303;-81
2021/03/15 07:21:57;;;;;;;60.00;43.87;;;;;;;6.04;72.60;99584.66;1658268;85;21202;-79
2021/03/15 07:24:30;;;;;;;60.43;42.43;;;;;;;6.07;72.41;99586.14;1679518;84;21539;-79
2021/03/15 07:27:04;;;;;;;57.73;40.53;;;;;;;6.10;72.13;99579.97;1683737;84;21183;-84
2021/03/15 07:29:47;;;;;;;66.20;46.60;;;;;;;6.17;71.80;99582.73;1685888;84;21143;-82
2021/03/15 07:32:37;;;;;;;67.90;48.30;;;;;;;6.13;72.03;99576.16;1668156;84;21391;-82
2021/03/15 07:35:24;;;;;;;77.57;54.30;;;;;;;6.11;72.18;99575.02;1687596;84;21193;-81
2021/03/15 07:37:51;;;;;;;87.35;54.35;;;;;;;6.11;72.35;99573.69;1665715;85;21258;-81
2021/03/15 07:40:31;;;;;;;109.00;65.07;;;;;;;6.16;72.34;99570.02;1672587;84;21209;-82
2021/03/15 07:43:16;;;;;;;128.03;69.80;;;;;;;6.19;72.24;99574.12;1647996;85;21168;-81
2021/03/15 07:45:47;;;;;;;186.77;77.60;;;;;;;6.30;72.09;99563.10;1682611;84;21266;-81
2021/03/15 07:48:22;;;;;;;154.17;74.83;;;;;;;6.50;71.48;99569.20;1678453;85;21182;-81
2021/03/15 07:53:47;;;;;;;111.37;61.53;;;;;;;6.54;71.02;99574.48;1795292;78;22695;-85
2021/03/15 07:56:22;;;;;;;122.73;66.17;;;;;;;6.46;71.03;99583.32;1738713;78;21112;-80
2021/03/15 07:58:49;;;;;;;130.33;67.87;;;;;;;6.42;71.26;99585.98;1702323;83;21180;-81
2021/03/15 08:01:19;;;;;;;138.33;68.03;;;;;;;6.38;71.27;99588.67;1714796;82;21182;-79
2021/03/15 08:03:49;;;;;;;100.83;57.53;;;;;;;6.36;71.26;99582.73;1728098;83;21355;-81
2021/03/15 08:06:18;;;;;;;95.10;58.03;;;;;;;6.42;71.11;99581.53;1725997;83;21209;-82
2021/03/15 08:08:46;;;;;;;105.83;69.47;;;;;;;6.47;71.02;99578.84;1707573;83;21424;-81
2021/03/15 08:11:18;;;;;;;106.53;69.70;;;;;;;6.40;71.06;99582.70;1699558;82;21338;-83
2021/03/15 08:13:52;;;;;;;121.27;71.73;;;;;;;6.35;71.42;99578.47;1724249;82;21241;-83
2021/03/15 08:16:22;;;;;;;129.27;69.17;;;;;;;6.34;71.49;99577.62;1729992;82;21235;-82
2021/03/15 08:18:53;;;;;;;144.33;69.57;;;;;;;6.37;71.41;99582.56;1721959;82;21199;-83
2021/03/15 08:21:36;;;;;;;107.20;60.33;;;;;;;6.46;71.30;99572.73;1728659;82;21196;-82
2021/03/15 08:24:07;;;;;;;104.83;64.10;;;;;;;5.55;70.60;99425.03;1703955;82;21318;-82
2021/03/15 08:26:40;;;;;;;106.00;61.13;;;;;;;6.36;71.07;99570.31;1697473;83;21944;-84
2021/03/15 08:29:10;;;;;;;108.53;61.83;;;;;;;6.23;71.66;99576.73;1696811;83;21218;-81
2021/03/15 08:31:45;;;;;;;92.30;56.20;;;;;;;6.14;72.02;99579.96;1673971;83;21227;-82
2021/03/15 08:34:15;;;;;;;103.90;56.73;;;;;;;6.14;72.13;99576.47;1704639;80;21112;-84
2021/03/15 08:36:45;;;;;;;128.23;62.50;;;;;;;6.23;71.95;99581.54;1718470;82;21228;-84
2021/03/15 08:42:30;;;;;;;180.67;77.80;;;;;;;6.21;72.25;99590.64;1765130;78;23130;-83
2021/03/15 08:44:59;;;;;;;186.97;79.17;;;;;;;5.98;72.32;99557.59;1715921;81;21084;-84
2021/03/15 08:47:51;;;;;;;124.10;59.83;;;;;;;6.13;72.40;99582.27;1679932;83;21274;-82
2021/03/15 08:50:40;;;;;;;166.83;74.37;;;;;;;6.17;72.52;99582.23;1687372;83;21873;-82
2021/03/15 08:53:08;;;;;;;;;;;;;;;6.24;72.29;99578.38;1677558;83;22312;-80
2021/03/15 08:55:50;;;;;;;136.15;63.33;;;;;;;6.23;72.41;99574.92;1701917;83;20204;-82
2021/03/15 08:58:50;;;;;;;128.13;60.33;;;;;;;6.15;72.67;99581.59;1703313;83;21223;-82
2021/03/15 09:01:54;;;;;;;95.63;54.90;;;;;;;6.21;72.82;99586.67;1742906;78;23131;-83
2021/03/15 09:04:42;;;;;;;82.10;50.80;;;;;;;6.20;72.73;99599.59;1724615;81;21195;-81
2021/03/15 09:07:32;;;;;;;79.12;48.05;;;;;;;6.20;72.69;99586.36;1747920;80;21180;-83
2021/03/15 09:10:27;;;;;;;74.57;48.57;;;;;;;6.33;72.38;99585.73;1751862;80;21160;-83
2021/03/15 09:13:24;;;;;;;85.43;50.40;;;;;;;6.38;72.31;99592.13;1753663;80;21113;-85
2021/03/15 09:15:56;;;;;;;83.13;51.70;;;;;;;6.36;72.45;99590.68;1756783;80;21120;-83
2021/03/15 09:18:48;;;;;;;75.17;49.57;;;;;;;6.36;72.44;99593.33;1749738;81;21176;-83
2021/03/15 09:21:29;;;;;;;61.63;41.93;;;;;;;6.37;72.44;99581.24;1753764;80;21176;-85
2021/03/15 09:24:00;;;;;;;58.03;40.33;;;;;;;6.50;72.14;99581.95;1747263;80;21337;-82
2021/03/15 09:26:32;;;;;;;67.83;44.03;;;;;;;6.62;71.64;99577.03;1746386;80;21760;-84
2021/03/15 09:28:59;;;;;;;59.60;41.50;;;;;;;6.58;71.73;99573.92;1750581;81;21221;-85
2021/03/15 09:31:26;;;;;;;65.40;40.87;;;;;;;6.50;71.82;99571.36;1737993;81;21256;-84
2021/03/15 09:33:56;;;;;;;63.07;43.13;;;;;;;6.37;72.06;99577.27;1731859;81;21108;-84
2021/03/15 09:36:30;;;;;;;64.23;40.07;;;;;;;6.29;72.35;99573.86;1757509;81;21391;-84
2021/03/15 09:38:58;;;;;;;62.13;40.50;;;;;;;6.30;72.46;99576.34;1752515;80;21148;-84
2021/03/15 09:41:26;;;;;;;58.03;40.80;;;;;;;6.37;72.29;99574.63;1709400;81;21696;-85
2021/03/15 09:43:54;;;;;;;63.37;40.20;;;;;;;6.39;72.50;99577.91;1754701;80;21120;-82
2021/03/15 09:46:27;;;;;;;66.03;44.47;;;;;;;6.39;72.50;99579.75;1754557;80;21041;-83
2021/03/15 09:48:55;;;;;;;61.87;43.33;;;;;;;6.39;72.58;99587.17;1754139;80;21634;-84
2021/03/15 09:51:28;;;;;;;70.80;43.17;;;;;;;6.41;72.64;99575.91;1752301;80;21326;-86
2021/03/15 09:54:09;;;;;;;63.77;41.87;;;;;;;6.52;72.49;99582.59;1751242;80;21179;-84
2021/03/15 09:56:41;;;;;;;62.20;41.83;;;;;;;6.71;72.08;99580.43;1752344;80;21402;-84
2021/03/15 09:59:11;;;;;;;66.57;44.70;;;;;;;6.77;72.00;99583.16;1753517;80;21682;-84
2021/03/15 10:01:46;;;;;;;66.03;43.30;;;;;;;6.43;71.82;99529.41;1751683;80;21064;-83
2021/03/15 10:04:42;;;;;;;62.13;40.37;;;;;;;6.80;71.89;99572.72;1787675;78;23811;-84
2021/03/15 10:07:34;;;;;;;72.43;43.90;;;;;;;6.77;71.97;99576.53;1756959;80;21895;-84
2021/03/15 10:10:28;;;;;;;58.65;37.63;;;;;;;6.75;72.12;99581.19;1714336;82;21201;-84
2021/03/15 10:13:13;;;;;;;58.13;38.00;;;;;;;6.83;71.85;99581.09;1631355;85;21161;-84
2021/03/15 10:16:06;;;;;;;61.40;40.30;;;;;;;6.92;71.58;99585.81;1642087;86;21176;-84
2021/03/15 10:18:48;;;;;;;61.00;40.37;;;;;;;6.90;71.54;99584.36;1809277;77;23085;-85
2021/03/15 10:21:31;;;;;;;59.27;41.10;;;;;;;6.81;71.82;99587.08;1785239;77;21221;-84
2021/03/15 10:24:00;;;;;;;59.87;38.30;;;;;;;6.80;71.72;99581.99;1753152;79;21557;-82
2021/03/15 10:26:31;;;;;;;57.80;37.60;;;;;;;6.76;71.74;99584.17;1743153;81;21185;-88
2021/03/15 10:28:59;;;;;;;59.63;38.13;;;;;;;6.72;71.79;99594.79;1738582;81;21157;-86
2021/03/15 10:31:31;;;;;;;57.63;37.77;;;;;;;6.76;71.74;99590.80;1743198;81;21173;-87
2021/03/15 10:34:08;;;;;;;61.40;38.80;;;;;;;6.81;71.61;99598.19;1741964;81;21489;-88
2021/03/15 10:36:38;;;;;;;63.47;42.30;;;;;;;6.75;71.72;99591.79;1750697;81;21329;-87
2021/03/15 10:39:30;;;;;;;58.27;38.47;;;;;;;6.66;72.00;99593.38;1813035;77;22928;-87
2021/03/15 10:41:58;;;;;;;59.93;37.10;;;;;;;6.52;72.15;99589.72;1752476;80;22441;-87
2021/03/15 10:44:28;;;;;;;66.00;40.27;;;;;;;6.47;72.34;99584.14;1711733;82;21144;-86
2021/03/15 10:46:57;;;;;;;58.70;37.13;;;;;;;6.43;72.35;99582.34;1690281;83;21217;-87
2021/03/15 10:49:27;;;;;;;58.60;40.10;;;;;;;6.46;72.34;99583.80;1691776;84;21204;-87
2021/03/15 10:54:52;;;;;;;52.00;34.53;;;;;;;6.41;72.39;99565.31;1803886;78;23145;-88
2021/03/15 10:57:22;;;;;;;48.33;33.40;;;;;;;6.35;72.61;99570.52;1774889;79;21108;-88
2021/03/15 10:59:58;;;;;;;51.70;36.80;;;;;;;6.34;72.59;99566.22;1779285;79;21191;-90
2021/03/15 11:02:52;;;;;;;54.63;35.20;;;;;;;6.33;72.75;99565.41;1777720;79;21358;-89
2021/03/15 11:05:41;;;;;;;52.63;34.77;;;;;;;6.32;72.92;99565.06;1749953;80;21876;-87
2021/03/15 11:08:22;;;;;;;60.80;40.50;;;;;;;6.42;73.08;99566.97;1748849;80;21219;-88
2021/03/15 11:10:51;;;;;;;52.27;37.03;;;;;;;6.39;72.94;99558.56;1735235;80;21456;-89
2021/03/15 11:13:21;;;;;;;58.43;40.67;;;;;;;6.35;73.26;99566.55;1701358;81;21591;-88
2021/03/15 11:15:57;;;;;;;59.77;41.37;;;;;;;6.34;73.27;99564.39;1714297;82;21689;-87
2021/03/15 11:18:27;;;;;;;56.60;37.97;;;;;;;6.33;73.49;99556.62;1711097;81;21240;-89
2021/03/15 11:21:01;;;;;;;49.63;35.87;;;;;;;6.38;73.43;99560.88;1720622;82;21651;-88
2021/03/15 11:23:37;;;;;;;46.73;35.33;;;;;;;6.51;73.16;99549.67;1706939;81;21143;-90
2021/03/15 11:26:15;;;;;;;51.03;37.40;;;;;;;6.54;73.10;99541.38;1795465;77;22974;-91
2021/03/15 11:28:47;;;;;;;43.67;33.20;;;;;;;6.40;73.45;99552.25;1777640;79;21357;-89
2021/03/15 11:31:42;;;;;;;40.60;30.63;;;;;;;6.35;73.66;99548.02;1789126;80;21290;-89
2021/03/15 11:34:14;;;;;;;40.67;29.43;;;;;;;6.27;73.77;99552.05;1728150;80;21078;-88
2021/03/15 11:36:47;;;;;;;37.75;27.85;;;;;;;6.28;73.71;99551.06;1696282;82;21291;-91
2021/03/15 11:39:18;;;;;;;36.77;27.40;;;;;;;6.36;73.49;99543.84;1695748;82;21193;-88
2021/03/15 11:42:31;;;;;;;32.97;25.87;;;;;;;6.37;73.68;99538.89;1825100;76;23398;-87
2021/03/15 11:45:10;;;;;;;34.20;24.83;;;;;;;6.28;73.81;99542.61;1761232;79;21213;-87
2021/03/15 11:47:44;;;;;;;30.17;23.50;;;;;;;6.24;73.91;99540.02;1703107;82;21199;-90
2021/03/15 11:50:25;;;;;;;27.03;20.53;;;;;;;6.21;74.04;99544.33;1702817;82;22518;-90
2021/03/15 11:53:04;;;;;;;28.23;20.67;;;;;;;6.23;73.99;99555.08;1673200;84;21205;-87
2021/03/15 11:55:36;;;;;;;25.57;20.83;;;;;;;6.33;73.92;99550.84;1700461;82;21159;-87
2021/03/15 11:58:04;;;;;;;24.13;19.47;;;;;;;6.30;74.01;99543.77;1685322;82;21318;-88
2021/03/15 12:00:33;;;;;;;28.30;20.50;;;;;;;6.26;74.40;99551.75;1650349;84;21092;-88
2021/03/15 12:03:09;;;;;;;31.47;22.93;;;;;;;6.14;74.50;99549.53;1614615;86;21173;-89
2021/03/15 12:06:44;;;;;;;19.10;14.70;;;;;;;6.04;75.04;99544.46;1830670;76;23125;-88